Saturday, September 22, 2018, 9:06 AM EDT
Back to Local

KHWV, Shirley Brookhaven Airport

Location: Shirley, NY, United States Lat: 40.817
Local Time: 9:06 AM EDT (13:06 GMT) Lon: -72.867
Time Zone: US/Eastern Elev: 82 ft

Show me the last for .
Show Decoded

2018-09-22 07:56 METAR KHWV 221156Z AUTO 32009G21KT 10SM FEW026 23/18 A3002 RMK AO2 SLP164
                 T02330183 10233 20217 53026 =
2018-09-22 06:56 METAR KHWV 221056Z AUTO 25005KT 9SM CLR 22/19 A2999 RMK AO2 SLP154 T02170194 =
2018-09-22 05:56 METAR KHWV 220956Z AUTO 24005KT 10SM CLR 22/19 A2996 RMK AO2 SLP143 T02220194 =
2018-09-22 04:56 METAR KHWV 220856Z AUTO 24008KT 10SM SCT015 23/20 A2994 RMK AO2 SLP138 T02280200
                 56008 =
2018-09-22 04:14 METAR KHWV 220814Z AUTO 24010G19KT 10SM BKN015 OVC020 23/20 A2995 RMK AO2
                 T02280200 =
2018-09-22 04:05 METAR KHWV 220805Z AUTO 23008G15KT 10SM BKN013 OVC020 23/20 A2994 RMK AO2
                 T02280200 =
2018-09-22 03:56 METAR KHWV 220756Z AUTO 24012G21KT 10SM SCT012 OVC020 23/20 A2994 RMK AO2 SLP138
                 T02280200 =
2018-09-22 03:38 METAR KHWV 220738Z AUTO 22010G19KT 10SM SCT011 OVC020 23/20 A2994 RMK AO2
                 T02280200 =
2018-09-22 02:56 METAR KHWV 220656Z AUTO 21012G22KT 10SM BKN011 OVC027 22/20 A2995 RMK AO2 SLP140
                 T02220200 =
2018-09-22 02:40 METAR KHWV 220640Z AUTO 21013G17KT 10SM BKN012 OVC029 22/20 A2995 RMK AO2
                 T02220200 =
2018-09-22 02:04 METAR KHWV 220604Z AUTO 20013G22KT 10SM FEW011 OVC029 22/19 A2996 RMK AO2
                 T02220194 =
2018-09-22 01:56 METAR KHWV 220556Z AUTO 21013G22KT 10SM OVC030 22/19 A2996 RMK AO2 SLP146
                 T02220194 10222 20211 56024 =
2018-09-22 00:56 METAR KHWV 220456Z AUTO 21012KT 10SM FEW013 OVC032 22/19 A2999 RMK AO2 SLP153
                 T02220194 402220183 =
2018-09-21 23:56 METAR KHWV 220356Z AUTO 20013G21KT 10SM OVC036 22/18 A3001 RMK AO2 SLP160
                 T02220183 =
2018-09-21 22:56 METAR KHWV 220256Z AUTO 21012G19KT 10SM OVC039 22/18 A3004 RMK AO2 SLP170
                 T02220183 51002 =
2018-09-21 21:56 METAR KHWV 220156Z AUTO 19012G16KT 10SM OVC041 22/18 A3004 RMK AO2 SLP170
                 T02170183 =
2018-09-21 20:56 METAR KHWV 220056Z AUTO 19010KT 10SM OVC045 22/18 A3004 RMK AO2 SLP171 T02170183
                 =
2018-09-21 19:56 METAR KHWV 212356Z AUTO 18011KT 10SM FEW045 21/18 A3003 RMK AO2 SLP167 T02110178
                 10222 20211 58028 =
2018-09-21 18:56 METAR KHWV 212256Z AUTO 18010G20KT 10SM OVC050 21/17 A3007 RMK AO2 SLP181
                 T02110172 =
2018-09-21 17:56 METAR KHWV 212156Z AUTO 19011G17KT 10SM BKN060 22/17 A3010 RMK AO2 SLP190
                 T02170167 =
2018-09-21 16:56 METAR KHWV 212056Z AUTO 18014KT 10SM OVC043 22/17 A3011 RMK AO2 SLP196 T02170167
                 58025 =
2018-09-21 15:56 METAR KHWV 211956Z AUTO 18012KT 10SM OVC046 22/16 A3014 RMK AO2 SLP206 T02170156
                 =
2018-09-21 14:56 METAR KHWV 211856Z AUTO 19013KT 10SM FEW024 BKN046 BKN060 22/14 A3017 RMK AO2
                 SLP214 T02170144 =
2018-09-21 13:56 METAR KHWV 211756Z AUTO 18012KT 10SM OVC043 22/14 A3019 RMK AO2 SLP221 T02170144
                 10222 20189 56023 =
2018-09-21 12:56 METAR KHWV 211656Z AUTO 16012KT 10SM OVC055 21/13 A3021 RMK AO2 SLP229 T02110133
                 =
2018-09-21 11:56 METAR KHWV 211556Z AUTO 15011KT 10SM OVC060 21/13 A3023 RMK AO2 SLP237 T02110133
                 =
2018-09-21 10:56 METAR KHWV 211456Z AUTO 14009KT 10SM OVC060 21/13 A3026 RMK AO2 SLP245 T02060133
                 58007 =
2018-09-21 09:56 METAR KHWV 211356Z AUTO 15010KT 10SM CLR 21/14 A3027 RMK AO2 SLP251 T02110139 =

Support USWX by starting your Amazon purchase here.